createdAt,value
2023-05-08T00:00:05.043Z,102208.28
2023-05-08T00:02:32.111Z,102215.34
2023-05-08T00:04:58.899Z,102214.31
2023-05-08T00:07:25.535Z,102211.69
2023-05-08T00:09:52.373Z,102217.69
2023-05-08T00:12:18.942Z,102213.50
2023-05-08T00:14:45.438Z,102206.16
2023-05-08T00:17:12.622Z,102202.78
2023-05-08T00:19:39.086Z,102204.84
2023-05-08T00:22:07.682Z,102196.47
2023-05-08T00:24:34.241Z,102201.44
2023-05-08T00:27:01.146Z,102197.50
2023-05-08T00:29:27.822Z,102194.34
2023-05-08T00:31:54.555Z,102194.84
2023-05-08T00:34:21.247Z,102188.31
2023-05-08T00:36:47.837Z,102192.72
2023-05-08T00:39:14.454Z,102194.03
2023-05-08T00:41:41.062Z,102195.34
2023-05-08T00:44:07.614Z,102199.50
2023-05-08T00:46:35.281Z,102193.75
2023-05-08T00:49:02.370Z,102193.22
2023-05-08T00:51:29.553Z,102186.38
2023-05-08T00:53:56.382Z,102196.06
2023-05-08T00:56:25.297Z,102191.09
2023-05-08T00:58:52.202Z,102192.91
2023-05-08T01:01:18.974Z,102191.31
2023-05-08T01:03:45.691Z,102191.03
2023-05-08T01:06:12.376Z,102192.09
2023-05-08T01:08:40.502Z,102187.34
2023-05-08T01:11:32.154Z,102187.31
2023-05-08T01:14:13.352Z,102188.38
2023-05-08T01:16:44.170Z,102194.63
2023-05-08T01:19:40.775Z,102190.94
2023-05-08T01:22:20.054Z,102193.03
2023-05-08T01:25:16.707Z,102190.94
2023-05-08T01:28:22.054Z,102193.78
2023-05-08T01:31:06.879Z,102186.47
2023-05-08T01:33:48.572Z,102192.97
2023-05-08T01:36:28.053Z,102197.13
2023-05-08T01:39:00.472Z,102196.56
2023-05-08T01:41:30.727Z,102202.06
2023-05-08T01:44:06.257Z,102207.56
2023-05-08T01:46:33.925Z,102206.75
2023-05-08T01:49:22.167Z,102198.38
2023-05-08T01:52:03.184Z,102198.63
2023-05-08T01:54:38.496Z,102200.72
2023-05-08T01:57:08.560Z,102195.97
2023-05-08T01:59:36.630Z,102204.06
2023-05-08T02:02:04.255Z,102203.28
2023-05-08T02:04:33.390Z,102202.72
2023-05-08T02:07:01.739Z,102206.41
2023-05-08T02:09:30.482Z,102215.25
2023-05-08T02:11:57.656Z,102217.88
2023-05-08T02:14:26.983Z,102210.81
2023-05-08T02:16:55.905Z,102205.59
2023-05-08T02:19:25.602Z,102212.66
2023-05-08T02:21:53.672Z,102209.50
2023-05-08T02:24:21.090Z,102213.16
2023-05-08T02:26:49.044Z,102204.28
2023-05-08T02:29:16.316Z,102208.72
2023-05-08T02:31:44.240Z,102210.56
2023-05-08T02:34:12.110Z,102220.72
2023-05-08T02:36:39.734Z,102224.94
2023-05-08T02:39:08.546Z,102219.16
2023-05-08T02:41:36.236Z,102218.13
2023-05-08T02:44:02.969Z,102223.09
2023-05-08T02:46:50.978Z,102225.94
2023-05-08T02:49:36.837Z,102218.38
2023-05-08T02:52:13.816Z,102219.94
2023-05-08T02:54:44.445Z,102222.81
2023-05-08T02:57:21.829Z,102210.75
2023-05-08T02:59:59.647Z,102216.22
2023-05-08T03:02:35.793Z,102212.06
2023-05-08T03:05:15.792Z,102212.06
2023-05-08T03:07:45.545Z,102210.47
2023-05-08T03:10:16.027Z,102210.47
2023-05-08T03:12:48.656Z,102208.09
2023-05-08T03:15:24.034Z,102204.16
2023-05-08T03:17:55.436Z,102204.66
2023-05-08T03:20:24.827Z,102197.31
2023-05-08T03:22:53.322Z,102201.72
2023-05-08T03:25:21.343Z,102195.41
2023-05-08T03:27:49.949Z,102197.19
2023-05-08T03:30:17.849Z,102196.88
2023-05-08T03:32:46.973Z,102195.00
2023-05-08T03:35:15.458Z,102195.53
2023-05-08T03:37:43.332Z,102203.06
2023-05-08T03:40:10.480Z,102203.28
2023-05-08T03:42:38.595Z,102200.66
2023-05-08T03:45:07.325Z,102208.97
2023-05-08T03:47:36.400Z,102199.25
2023-05-08T03:50:04.353Z,102192.16
2023-05-08T03:52:32.610Z,102190.28
2023-05-08T03:54:59.489Z,102187.91
2023-05-08T03:57:31.119Z,102192.09
2023-05-08T04:00:06.543Z,102195.25
2023-05-08T04:02:42.563Z,102197.09
2023-05-08T04:05:29.830Z,102190.28
2023-05-08T04:08:08.280Z,102198.66
2023-05-08T04:10:43.697Z,102193.66
2023-05-08T04:13:20.102Z,102198.34
2023-05-08T04:16:00.836Z,102198.06
2023-05-08T04:18:30.573Z,102207.69
2023-05-08T04:20:58.647Z,102206.69
2023-05-08T04:23:27.618Z,102204.38
2023-05-08T04:25:56.698Z,102210.41
2023-05-08T04:28:23.679Z,102208.13
2023-05-08T04:30:52.048Z,102210.47
2023-05-08T04:33:19.151Z,102211.81
2023-05-08T04:35:48.757Z,102200.66
2023-05-08T04:38:15.294Z,102208.03
2023-05-08T04:40:41.774Z,102206.53
2023-05-08T04:43:08.505Z,102214.22
2023-05-08T04:45:35.050Z,102208.75
2023-05-08T04:48:01.817Z,102210.72
2023-05-08T04:50:28.569Z,102223.63
2023-05-08T04:52:55.809Z,102214.78
2023-05-08T04:55:22.390Z,102222.72
2023-05-08T04:57:49.075Z,102220.75
2023-05-08T05:00:15.967Z,102220.97
2023-05-08T05:02:42.538Z,102227.34
2023-05-08T05:05:09.071Z,102230.53
2023-05-08T05:07:35.590Z,102233.38
2023-05-08T05:10:02.127Z,102242.91
2023-05-08T05:12:28.575Z,102240.16
2023-05-08T05:14:55.190Z,102241.19
2023-05-08T05:17:21.912Z,102246.41
2023-05-08T05:19:48.793Z,102238.03
2023-05-08T05:22:16.346Z,102240.94
2023-05-08T05:24:42.911Z,102244.41
2023-05-08T05:27:09.455Z,102251.50
2023-05-08T05:29:35.873Z,102247.53
2023-05-08T05:32:02.770Z,102250.59
2023-05-08T05:34:29.859Z,102251.97
2023-05-08T05:36:56.413Z,102253.88
2023-05-08T05:39:23.018Z,102253.41
2023-05-08T05:41:51.009Z,102252.59
2023-05-08T05:44:18.286Z,102260.72
2023-05-08T05:46:45.547Z,102261.25
2023-05-08T05:49:12.361Z,102257.81
2023-05-08T05:51:38.778Z,102264.84
2023-05-08T05:54:05.468Z,102258.78
2023-05-08T05:56:32.076Z,102259.75
2023-05-08T05:58:58.701Z,102265.53
2023-05-08T06:01:25.320Z,102266.41
2023-05-08T06:03:52.280Z,102264.94
2023-05-08T06:06:20.377Z,102273.38
2023-05-08T06:08:46.960Z,102271.69
2023-05-08T06:11:13.405Z,102272.84
2023-05-08T06:13:41.301Z,102267.16
2023-05-08T06:16:08.326Z,102265.84
2023-05-08T06:18:34.855Z,102271.59
2023-05-08T06:21:01.512Z,102272.13
2023-05-08T06:23:28.122Z,102270.84
2023-05-08T06:25:54.725Z,102272.72
2023-05-08T06:28:22.560Z,102271.00
2023-05-08T06:30:49.273Z,102267.59
2023-05-08T06:33:15.865Z,102269.03
2023-05-08T06:35:46.456Z,102266.94
2023-05-08T06:38:13.079Z,102277.22
2023-05-08T06:40:46.537Z,102278.63
2023-05-08T06:43:13.691Z,102273.47
2023-05-08T06:45:40.345Z,102275.13
2023-05-08T06:48:07.055Z,102277.09
2023-05-08T06:50:33.627Z,102275.13
2023-05-08T06:53:00.583Z,102272.78
2023-05-08T06:55:27.112Z,102285.13
2023-05-08T06:57:53.550Z,102279.88
2023-05-08T07:00:20.702Z,102289.53
2023-05-08T07:02:48.728Z,102283.94
2023-05-08T07:05:15.458Z,102285.72
2023-05-08T07:07:42.863Z,102284.63
2023-05-08T07:10:10.338Z,102293.63
2023-05-08T07:12:37.307Z,102297.22
2023-05-08T07:15:13.938Z,102285.31
2023-05-08T07:17:44.697Z,102279.50
2023-05-08T07:20:11.508Z,102284.16
2023-05-08T07:22:38.269Z,102282.78
2023-05-08T07:25:05.489Z,102290.88
2023-05-08T07:27:31.969Z,102284.25
2023-05-08T07:29:58.899Z,102284.88
2023-05-08T07:32:25.444Z,102284.78
2023-05-08T07:34:52.144Z,102281.41
2023-05-08T07:37:18.651Z,102270.72
2023-05-08T07:39:45.139Z,102281.91
2023-05-08T07:42:11.847Z,102275.53
2023-05-08T07:44:51.028Z,102273.38
2023-05-08T07:47:20.741Z,102275.66
2023-05-08T07:49:47.602Z,102275.69
2023-05-08T07:52:14.175Z,102276.41
2023-05-08T07:54:41.579Z,102270.09
2023-05-08T07:57:08.041Z,102275.94
2023-05-08T07:59:34.652Z,102267.72
2023-05-08T08:02:01.394Z,102278.41
2023-05-08T08:04:28.140Z,102284.16
2023-05-08T08:06:55.313Z,102282.56
2023-05-08T08:09:21.990Z,102272.03
2023-05-08T08:11:48.589Z,102271.19
2023-05-08T08:14:15.142Z,102283.41
2023-05-08T08:16:42.926Z,102282.53
2023-05-08T08:19:10.784Z,102290.91
2023-05-08T08:21:43.534Z,102289.78
2023-05-08T08:24:10.492Z,102288.69
2023-05-08T08:26:37.200Z,102286.97
2023-05-08T08:29:04.134Z,102285.84
2023-05-08T08:31:30.716Z,102275.72
2023-05-08T08:33:57.580Z,102276.50
2023-05-08T08:36:24.399Z,102282.41
2023-05-08T08:38:50.904Z,102283.31
2023-05-08T08:41:17.467Z,102274.63
2023-05-08T08:43:44.121Z,102277.84
2023-05-08T08:46:14.646Z,102275.16
2023-05-08T08:48:46.571Z,102268.66
2023-05-08T08:51:28.681Z,102268.41
2023-05-08T08:54:11.582Z,102263.72
2023-05-08T08:56:40.706Z,102273.69
2023-05-08T08:59:08.969Z,102273.09
2023-05-08T09:01:40.828Z,102270.91
2023-05-08T09:04:07.444Z,102275.16
2023-05-08T09:06:38.593Z,102273.41
2023-05-08T09:09:05.722Z,102281.97
2023-05-08T09:11:32.498Z,102275.41
2023-05-08T09:13:59.587Z,102283.47
2023-05-08T09:16:28.381Z,102277.28
2023-05-08T09:18:55.183Z,102284.03
2023-05-08T09:21:23.305Z,102270.34
2023-05-08T09:23:56.545Z,102275.66
2023-05-08T09:26:42.100Z,102275.75
2023-05-08T09:29:17.223Z,102284.28
2023-05-08T09:31:46.068Z,102279.63
2023-05-08T09:34:28.057Z,102285.66
2023-05-08T09:37:15.317Z,102275.38
2023-05-08T09:39:43.340Z,102271.53
2023-05-08T09:42:09.845Z,102277.59
2023-05-08T09:44:50.733Z,102269.28
2023-05-08T09:47:20.709Z,102273.78
2023-05-08T09:50:04.235Z,102275.63
2023-05-08T09:52:32.618Z,102276.97
2023-05-08T09:55:06.886Z,102278.25
2023-05-08T09:57:39.447Z,102285.63
2023-05-08T10:00:07.422Z,102281.53
2023-05-08T10:02:35.381Z,102287.50
2023-05-08T10:05:02.697Z,102282.38
2023-05-08T10:07:34.492Z,102275.38
2023-05-08T10:10:03.066Z,102270.16
2023-05-08T10:12:31.003Z,102285.13
2023-05-08T10:14:57.836Z,102276.69
2023-05-08T10:17:31.398Z,102277.75
2023-05-08T10:20:06.904Z,102279.75
2023-05-08T10:22:37.766Z,102286.16
2023-05-08T10:25:10.706Z,102280.19
2023-05-08T10:28:36.370Z,102279.41
2023-05-08T10:31:05.616Z,102278.22
2023-05-08T10:33:34.662Z,102287.78
2023-05-08T10:36:01.800Z,102284.03
2023-05-08T10:38:28.547Z,102282.66
2023-05-08T10:40:58.207Z,102280.63
2023-05-08T10:43:25.790Z,102281.84
2023-05-08T10:45:55.593Z,102286.91
2023-05-08T10:48:39.283Z,102280.34
2023-05-08T10:51:38.564Z,102280.84
2023-05-08T10:54:09.027Z,102274.72
2023-05-08T10:56:38.105Z,102277.47
2023-05-08T10:59:06.001Z,102275.81
2023-05-08T11:01:32.625Z,102271.44
2023-05-08T11:03:59.202Z,102268.31
2023-05-08T11:06:59.201Z,102267.97
2023-05-08T11:09:30.873Z,102273.75
2023-05-08T11:12:15.577Z,102269.59
2023-05-08T11:14:42.920Z,102269.53
2023-05-08T11:17:10.674Z,102267.41
2023-05-08T11:19:38.039Z,102271.25
2023-05-08T11:22:19.373Z,102263.56
2023-05-08T11:25:03.022Z,102262.69
2023-05-08T11:27:48.306Z,102259.69
2023-05-08T11:30:20.902Z,102255.00
2023-05-08T11:33:02.964Z,102253.44
2023-05-08T11:35:46.149Z,102240.63
2023-05-08T11:38:35.837Z,102241.31
2023-05-08T11:41:05.529Z,102248.19
2023-05-08T11:43:50.011Z,102239.19
2023-05-08T11:46:18.236Z,102244.94
2023-05-08T11:48:44.963Z,102246.41
2023-05-08T11:51:13.678Z,102239.41
2023-05-08T11:53:40.577Z,102242.84
2023-05-08T11:56:08.100Z,102248.72
2023-05-08T11:58:34.676Z,102241.00
2023-05-08T12:01:02.281Z,102241.53
2023-05-08T12:03:29.026Z,102241.19
2023-05-08T12:05:57.909Z,102239.84
2023-05-08T12:08:24.428Z,102232.31
2023-05-08T12:10:52.821Z,102232.00
2023-05-08T12:13:21.599Z,102229.19
2023-05-08T12:15:54.448Z,102231.19
2023-05-08T12:18:22.274Z,102240.28
2023-05-08T12:20:53.222Z,102226.91
2023-05-08T12:23:19.807Z,102232.25
2023-05-08T12:25:46.457Z,102226.25
2023-05-08T12:28:13.008Z,102227.44
2023-05-08T12:30:39.578Z,102226.09
2023-05-08T12:33:06.763Z,102237.88
2023-05-08T12:35:33.883Z,102230.28
2023-05-08T12:38:05.720Z,102230.38
2023-05-08T12:40:34.429Z,102225.09
2023-05-08T12:43:02.794Z,102221.13
2023-05-08T12:45:34.711Z,102215.16
2023-05-08T12:48:03.743Z,102226.06
2023-05-08T12:50:37.939Z,102216.25
2023-05-08T12:53:06.384Z,102209.25
2023-05-08T12:55:34.709Z,102197.75
2023-05-08T12:58:10.559Z,102195.31
2023-05-08T13:00:43.462Z,102195.97
2023-05-08T13:03:12.074Z,102193.41
2023-05-08T13:05:43.262Z,102196.28
2023-05-08T13:08:11.016Z,102190.28
2023-05-08T13:10:54.522Z,102189.19
2023-05-08T13:13:28.433Z,102189.28
2023-05-08T13:15:55.734Z,102185.50
2023-05-08T13:18:26.815Z,102180.94
2023-05-08T13:20:54.718Z,102182.94
2023-05-08T13:23:21.268Z,102178.00
2023-05-08T13:25:47.985Z,102186.16
2023-05-08T13:28:14.701Z,102182.56
2023-05-08T13:30:41.328Z,102177.84
2023-05-08T13:33:07.965Z,102182.31
2023-05-08T13:35:37.856Z,102186.59
2023-05-08T13:38:04.382Z,102174.38
2023-05-08T13:40:31.359Z,102173.09
2023-05-08T13:42:57.814Z,102171.44
2023-05-08T13:45:24.473Z,102175.81
2023-05-08T13:47:51.461Z,102171.81
2023-05-08T13:50:21.652Z,102168.72
2023-05-08T13:52:48.957Z,102168.56
2023-05-08T13:55:16.274Z,102163.50
2023-05-08T13:57:43.362Z,102173.97
2023-05-08T14:00:11.283Z,102165.88
2023-05-08T14:02:38.173Z,102161.25
2023-05-08T14:05:05.654Z,102156.84
2023-05-08T14:07:32.379Z,102165.50
2023-05-08T14:09:59.026Z,102155.06
2023-05-08T14:12:28.389Z,102154.63
2023-05-08T14:14:54.954Z,102154.22
2023-05-08T14:17:21.524Z,102153.69
2023-05-08T14:19:51.276Z,102151.38
2023-05-08T14:22:18.032Z,102150.06
2023-05-08T14:24:44.529Z,102147.28
2023-05-08T14:27:11.340Z,102143.88
2023-05-08T14:29:37.963Z,102142.47
2023-05-08T14:32:05.360Z,102149.31
2023-05-08T14:34:31.934Z,102142.03
2023-05-08T14:36:58.723Z,102143.97
2023-05-08T14:39:25.433Z,102147.00
2023-05-08T14:42:17.793Z,102143.31
2023-05-08T14:44:38.979Z,102144.94
2023-05-08T14:47:05.745Z,102144.84
2023-05-08T14:49:38.039Z,102139.88
2023-05-08T14:52:06.823Z,102139.50
2023-05-08T14:54:33.939Z,102134.72
2023-05-08T14:57:00.781Z,102133.84
2023-05-08T14:59:27.551Z,102129.22
2023-05-08T15:01:54.259Z,102131.47
2023-05-08T15:04:20.968Z,102123.06
2023-05-08T15:06:47.618Z,102132.19
2023-05-08T15:09:16.913Z,102136.66
2023-05-08T15:11:43.779Z,102131.09
2023-05-08T15:14:10.343Z,102130.78
2023-05-08T15:16:37.225Z,102129.56
2023-05-08T15:19:03.867Z,102124.31
2023-05-08T15:21:30.499Z,102135.97
2023-05-08T15:23:57.159Z,102133.19
2023-05-08T15:26:23.669Z,102130.66
2023-05-08T15:28:51.138Z,102127.09
2023-05-08T15:31:18.023Z,102122.31
2023-05-08T15:33:45.231Z,102126.41
2023-05-08T15:36:15.460Z,102122.22
2023-05-08T15:38:42.915Z,102125.97
2023-05-08T15:41:15.136Z,102120.97
2023-05-08T15:43:42.422Z,102118.31
2023-05-08T15:46:09.047Z,102116.47
2023-05-08T15:48:35.660Z,102110.25
2023-05-08T15:51:02.183Z,102118.59
2023-05-08T15:53:28.801Z,102112.66
2023-05-08T15:55:56.971Z,102112.59
2023-05-08T15:58:23.763Z,102115.81
2023-05-08T16:00:50.380Z,102114.13
2023-05-08T16:03:17.206Z,102128.97
2023-05-08T16:05:43.946Z,102120.09
2023-05-08T16:08:13.185Z,102115.78
2023-05-08T16:10:40.993Z,102123.53
2023-05-08T16:13:07.966Z,102120.41
2023-05-08T16:15:34.715Z,102122.84
2023-05-08T16:18:01.507Z,102115.31
2023-05-08T16:20:28.102Z,102117.72
2023-05-08T16:22:56.067Z,102114.16
2023-05-08T16:25:22.950Z,102122.41
2023-05-08T16:27:49.766Z,102113.66
2023-05-08T16:30:17.037Z,102122.75
2023-05-08T16:32:46.018Z,102120.16
2023-05-08T16:35:12.904Z,102117.56
2023-05-08T16:37:39.924Z,102125.88
2023-05-08T16:40:08.093Z,102124.38
2023-05-08T16:42:35.453Z,102121.94
2023-05-08T16:45:02.700Z,102116.03
2023-05-08T16:47:29.207Z,102115.78
2023-05-08T16:49:56.743Z,102116.28
2023-05-08T16:52:23.322Z,102106.44
2023-05-08T16:54:50.024Z,102108.63
2023-05-08T16:57:16.564Z,102107.09
2023-05-08T16:59:43.133Z,102103.00
2023-05-08T17:02:10.165Z,102100.41
2023-05-08T17:04:40.126Z,102103.13
2023-05-08T17:07:07.747Z,102089.56
2023-05-08T17:09:35.088Z,102087.06
2023-05-08T17:12:02.261Z,102083.31
2023-05-08T17:14:28.929Z,102089.16
2023-05-08T17:16:55.578Z,102090.13
2023-05-08T17:19:22.231Z,102097.53
2023-05-08T17:21:50.373Z,102092.94
2023-05-08T17:24:18.762Z,102106.19
2023-05-08T17:26:47.684Z,102098.16
2023-05-08T17:29:14.350Z,102104.94
2023-05-08T17:31:42.130Z,102113.19
2023-05-08T17:34:08.781Z,102101.47
2023-05-08T17:36:35.467Z,102108.91
2023-05-08T17:39:02.349Z,102110.81
2023-05-08T17:41:29.027Z,102116.81
2023-05-08T17:43:58.697Z,102120.13
2023-05-08T17:46:25.750Z,102111.72
2023-05-08T17:48:58.550Z,102106.28
2023-05-08T17:51:25.248Z,102109.09
2023-05-08T17:54:00.492Z,102102.09
2023-05-08T17:56:31.675Z,102099.91
2023-05-08T17:59:00.659Z,102099.19
2023-05-08T18:01:27.734Z,102112.25
2023-05-08T18:03:54.676Z,102097.63
2023-05-08T18:06:21.426Z,102104.50
2023-05-08T18:08:48.237Z,102107.63
2023-05-08T18:11:22.828Z,102116.19
2023-05-08T18:13:55.049Z,102122.75
2023-05-08T18:16:23.925Z,102122.47
2023-05-08T18:18:50.851Z,102121.69
2023-05-08T18:24:03.066Z,102117.66
2023-05-08T18:26:30.850Z,102113.59
2023-05-08T18:28:59.070Z,102115.44
2023-05-08T18:31:26.113Z,102105.94
2023-05-08T18:33:52.942Z,102110.25
2023-05-08T18:36:22.766Z,102117.09
2023-05-08T18:38:50.911Z,102118.63
2023-05-08T18:41:19.389Z,102117.41
2023-05-08T18:44:03.512Z,102108.50
2023-05-08T18:46:31.994Z,102110.53
2023-05-08T18:49:06.791Z,102113.16
2023-05-08T18:51:36.618Z,102114.09
2023-05-08T18:54:04.944Z,102107.19
2023-05-08T18:56:34.351Z,102096.59
2023-05-08T18:59:03.170Z,102088.28
2023-05-08T19:01:30.428Z,102092.16
2023-05-08T19:03:57.201Z,102086.97
2023-05-08T19:06:24.052Z,102089.44
2023-05-08T19:08:52.235Z,102101.72
2023-05-08T19:11:18.976Z,102088.91
2023-05-08T19:13:45.491Z,102091.63
2023-05-08T19:16:12.603Z,102095.13
2023-05-08T19:18:39.195Z,102103.38
2023-05-08T19:21:06.566Z,102099.09
2023-05-08T19:23:33.154Z,102102.47
2023-05-08T19:25:59.681Z,102110.50
2023-05-08T19:28:26.277Z,102102.88
2023-05-08T19:30:52.724Z,102104.38
2023-05-08T19:33:20.988Z,102096.56
2023-05-08T19:35:48.360Z,102095.13
2023-05-08T19:38:15.183Z,102098.94
2023-05-08T19:40:55.616Z,102101.19
2023-05-08T19:43:23.396Z,102106.13
2023-05-08T19:45:49.884Z,102103.56
2023-05-08T19:48:18.247Z,102097.91
2023-05-08T19:50:45.042Z,102101.25
2023-05-08T19:53:12.800Z,102097.16
2023-05-08T19:55:39.369Z,102096.75
2023-05-08T19:58:05.919Z,102106.34
2023-05-08T20:00:32.468Z,102112.00
2023-05-08T20:02:59.091Z,102112.97
2023-05-08T20:05:25.743Z,102116.19
2023-05-08T20:07:52.234Z,102111.59
2023-05-08T20:10:18.815Z,102118.53
2023-05-08T20:12:45.337Z,102118.31
2023-05-08T20:15:12.202Z,102106.78
2023-05-08T20:17:39.043Z,102109.81
2023-05-08T20:20:06.346Z,102114.09
2023-05-08T20:22:32.888Z,102116.03
2023-05-08T20:25:01.027Z,102120.63
2023-05-08T20:27:28.664Z,102121.28
2023-05-08T20:29:55.543Z,102125.50
2023-05-08T20:32:22.150Z,102116.22
2023-05-08T20:34:49.054Z,102118.56
2023-05-08T20:37:18.262Z,102129.41
2023-05-08T20:39:45.233Z,102126.75
2023-05-08T20:42:11.947Z,102131.25
2023-05-08T20:44:38.604Z,102139.94
2023-05-08T20:47:05.155Z,102123.41
2023-05-08T20:49:31.789Z,102134.44
2023-05-08T20:51:58.320Z,102127.41
2023-05-08T20:54:24.996Z,102136.09
2023-05-08T20:56:51.902Z,102125.31
2023-05-08T20:59:18.825Z,102123.00
2023-05-08T21:01:46.789Z,102126.69
2023-05-08T21:04:13.455Z,102124.81
2023-05-08T21:06:41.229Z,102125.91
2023-05-08T21:09:07.778Z,102114.78
2023-05-08T21:11:34.349Z,102108.53
2023-05-08T21:14:01.168Z,102100.94
2023-05-08T21:16:27.666Z,102088.03
2023-05-08T21:18:56.677Z,102097.31
2023-05-08T21:21:24.629Z,102084.69
2023-05-08T21:23:51.179Z,102082.94
2023-05-08T21:26:19.832Z,102090.69
2023-05-08T21:28:46.363Z,102087.94
2023-05-08T21:31:12.878Z,102089.28
2023-05-08T21:33:39.871Z,102091.16
2023-05-08T21:36:06.518Z,102086.16
2023-05-08T21:38:33.062Z,102085.72
2023-05-08T21:41:06.518Z,102076.84
2023-05-08T21:43:33.175Z,102080.84
2023-05-08T21:45:59.923Z,102080.56
2023-05-08T21:48:26.621Z,102073.44
2023-05-08T21:50:53.086Z,102074.22
2023-05-08T21:53:19.525Z,102078.69
2023-05-08T21:55:46.270Z,102071.66
2023-05-08T21:58:12.717Z,102062.78
2023-05-08T22:00:39.699Z,102061.69
2023-05-08T22:03:06.421Z,102062.19
2023-05-08T22:05:32.998Z,102056.16
2023-05-08T22:07:59.459Z,102061.69
2023-05-08T22:10:25.977Z,102057.78
2023-05-08T22:12:52.556Z,102045.41
2023-05-08T22:15:28.985Z,102048.53
2023-05-08T22:17:56.517Z,102050.16
2023-05-08T22:20:23.110Z,102038.28
2023-05-08T22:22:49.745Z,102038.28
2023-05-08T22:25:16.542Z,102028.06
2023-05-08T22:27:43.334Z,102027.25
2023-05-08T22:30:10.018Z,102026.47
2023-05-08T22:32:36.858Z,102022.84
2023-05-08T22:35:03.595Z,102018.19
2023-05-08T22:37:30.658Z,102018.25
2023-05-08T22:39:57.123Z,102014.34
2023-05-08T22:42:24.269Z,102009.41
2023-05-08T22:44:51.306Z,102006.59
2023-05-08T22:47:18.006Z,101998.47
2023-05-08T22:49:44.511Z,101991.94
2023-05-08T22:52:11.030Z,101983.41
2023-05-08T22:54:37.548Z,101980.53
2023-05-08T22:57:04.116Z,101973.44
2023-05-08T22:59:30.758Z,101965.06
2023-05-08T23:01:57.273Z,101960.84
2023-05-08T23:04:23.958Z,101962.72
2023-05-08T23:06:50.494Z,101966.44
2023-05-08T23:09:16.930Z,101965.44
2023-05-08T23:11:43.418Z,101963.09
2023-05-08T23:14:09.896Z,101958.13
2023-05-08T23:16:36.492Z,101953.94
2023-05-08T23:19:04.550Z,101946.31
2023-05-08T23:21:32.158Z,101946.31
2023-05-08T23:23:59.003Z,101949.00
2023-05-08T23:26:26.138Z,101945.38
2023-05-08T23:28:52.906Z,101943.34
2023-05-08T23:31:19.432Z,101939.72
2023-05-08T23:33:46.343Z,101944.19
2023-05-08T23:36:12.979Z,101936.31
2023-05-08T23:38:39.507Z,101929.75
2023-05-08T23:41:06.061Z,101926.34
2023-05-08T23:43:32.551Z,101910.84
2023-05-08T23:45:59.238Z,101913.47
2023-05-08T23:48:26.331Z,101905.66
2023-05-08T23:50:53.545Z,101906.72
2023-05-08T23:53:20.043Z,101901.75
2023-05-08T23:55:50.841Z,101901.75
2023-05-08T23:58:18.428Z,101903.59
